createdAt,value
2022-09-20T00:01:39.238Z,88.01
2022-09-20T00:04:11.636Z,88.10
2022-09-20T00:06:39.674Z,87.73
2022-09-20T00:09:07.883Z,88.45
2022-09-20T00:11:37.156Z,88.37
2022-09-20T00:14:12.727Z,88.28
2022-09-20T00:16:44.857Z,88.39
2022-09-20T00:19:23.170Z,88.37
2022-09-20T00:21:51.433Z,88.42
2022-09-20T00:24:19.516Z,88.38
2022-09-20T00:26:48.110Z,88.56
2022-09-20T00:29:16.808Z,88.45
2022-09-20T00:31:47.177Z,88.82
2022-09-20T00:34:34.478Z,88.94
2022-09-20T00:37:02.646Z,88.96
2022-09-20T00:39:31.544Z,89.22
2022-09-20T00:41:59.579Z,88.99
2022-09-20T00:44:58.592Z,88.88
2022-09-20T00:47:39.796Z,89.29
2022-09-20T00:50:27.762Z,88.61
2022-09-20T00:53:03.250Z,88.79
2022-09-20T00:55:37.816Z,89.08
2022-09-20T00:58:09.010Z,88.96
2022-09-20T01:00:39.168Z,88.95
2022-09-20T01:03:11.476Z,89.23
2022-09-20T01:05:41.067Z,89.21
2022-09-20T01:08:10.330Z,88.93
2022-09-20T01:10:38.779Z,89.01
2022-09-20T01:13:06.986Z,89.27
2022-09-20T01:15:36.898Z,89.45
2022-09-20T01:18:09.488Z,89.32
2022-09-20T01:20:40.846Z,88.91
2022-09-20T01:23:42.253Z,89.01
2022-09-20T01:26:50.629Z,89.33
2022-09-20T01:29:38.570Z,88.85
2022-09-20T01:32:14.842Z,88.83
2022-09-20T01:34:49.842Z,88.78
2022-09-20T01:37:26.184Z,89.11
2022-09-20T01:40:06.455Z,88.70
2022-09-20T01:42:38.745Z,89.07
2022-09-20T01:45:24.810Z,88.84
2022-09-20T01:48:05.569Z,88.76
2022-09-20T01:50:41.964Z,89.11
2022-09-20T01:53:36.137Z,88.69
2022-09-20T01:56:58.034Z,89.06
2022-09-20T01:59:55.065Z,88.83
2022-09-20T02:03:13.489Z,89.03
2022-09-20T02:06:09.554Z,88.68
2022-09-20T02:09:08.444Z,88.55
2022-09-20T02:11:51.026Z,89.08
2022-09-20T02:14:43.190Z,89.06
2022-09-20T02:17:15.339Z,88.83
2022-09-20T02:20:10.007Z,89.33
2022-09-20T02:22:46.279Z,88.24
2022-09-20T02:25:41.919Z,89.38
2022-09-20T02:28:27.093Z,88.94
2022-09-20T02:31:03.910Z,88.36
2022-09-20T02:34:12.423Z,87.91
2022-09-20T02:36:57.895Z,88.20
2022-09-20T02:39:35.974Z,87.55
2022-09-20T02:42:14.395Z,87.56
2022-09-20T02:44:55.543Z,88.45
2022-09-20T02:47:34.369Z,87.62
2022-09-20T02:50:19.948Z,87.89
2022-09-20T02:53:05.300Z,88.09
2022-09-20T02:55:42.697Z,88.31
2022-09-20T02:58:34.520Z,88.12
2022-09-20T03:01:10.958Z,87.01
2022-09-20T03:03:51.374Z,87.55
2022-09-20T03:06:29.985Z,87.61
2022-09-20T03:09:08.256Z,87.19
2022-09-20T03:11:45.768Z,88.43
2022-09-20T03:14:23.015Z,87.59
2022-09-20T03:17:08.068Z,87.60
2022-09-20T03:20:06.626Z,87.82
2022-09-20T03:22:49.703Z,88.35
2022-09-20T03:25:39.374Z,87.57
2022-09-20T03:28:25.432Z,87.66
2022-09-20T03:31:06.033Z,88.65
2022-09-20T03:33:47.517Z,88.21
2022-09-20T03:36:42.013Z,87.64
2022-09-20T03:39:37.548Z,87.26
2022-09-20T03:42:17.899Z,87.72
2022-09-20T03:45:22.010Z,87.83
2022-09-20T03:48:16.512Z,88.05
2022-09-20T03:50:58.100Z,87.95
2022-09-20T03:54:28.931Z,87.52
2022-09-20T03:57:30.536Z,87.99
2022-09-20T04:00:23.935Z,88.05
2022-09-20T04:03:19.021Z,87.72
2022-09-20T04:06:03.216Z,87.39
2022-09-20T04:08:55.468Z,87.22
2022-09-20T04:11:32.819Z,87.80
2022-09-20T04:14:13.513Z,88.53
2022-09-20T04:16:50.343Z,87.83
2022-09-20T04:19:32.197Z,87.39
2022-09-20T04:22:03.126Z,88.28
2022-09-20T04:24:51.119Z,87.64
2022-09-20T04:27:25.827Z,87.79
2022-09-20T04:30:04.175Z,87.94
2022-09-20T04:32:41.111Z,88.30
2022-09-20T04:35:42.286Z,87.33
2022-09-20T04:38:15.414Z,87.97
2022-09-20T04:41:20.543Z,87.63
2022-09-20T04:44:27.801Z,88.15
2022-09-20T04:47:29.406Z,87.58
2022-09-20T04:50:56.578Z,88.10
2022-09-20T04:53:58.260Z,88.25
2022-09-20T04:56:42.813Z,87.85
2022-09-20T04:59:17.782Z,88.08
2022-09-20T05:02:35.955Z,87.70
2022-09-20T05:05:30.761Z,87.82
2022-09-20T05:09:07.727Z,87.78
2022-09-20T05:11:58.386Z,87.11
2022-09-20T05:14:53.084Z,88.75
2022-09-20T05:17:38.173Z,87.57
2022-09-20T05:20:43.977Z,88.09
2022-09-20T05:23:43.566Z,87.57
2022-09-20T05:26:16.410Z,87.95
2022-09-20T05:28:56.716Z,87.41
2022-09-20T05:31:38.096Z,87.64
2022-09-20T05:34:18.202Z,88.28
2022-09-20T05:36:58.691Z,88.48
2022-09-20T05:39:37.585Z,87.81
2022-09-20T05:42:18.775Z,88.79
2022-09-20T05:45:05.755Z,87.97
2022-09-20T05:47:43.726Z,88.29
2022-09-20T05:50:40.430Z,88.56
2022-09-20T05:53:52.537Z,88.81
2022-09-20T05:56:38.603Z,87.77
2022-09-20T05:59:26.975Z,87.82
2022-09-20T06:02:26.512Z,88.18
2022-09-20T06:05:04.935Z,87.52
2022-09-20T06:07:53.997Z,88.24
2022-09-20T06:10:50.988Z,88.06
2022-09-20T06:13:45.805Z,87.59
2022-09-20T06:16:27.787Z,87.68
2022-09-20T06:19:08.002Z,87.65
2022-09-20T06:21:43.886Z,87.36
2022-09-20T06:24:31.298Z,87.50
2022-09-20T06:27:04.778Z,87.41
2022-09-20T06:29:37.137Z,87.55
2022-09-20T06:32:05.360Z,87.30
2022-09-20T06:34:33.750Z,87.71
2022-09-20T06:37:34.246Z,87.71
2022-09-20T06:40:35.945Z,88.05
2022-09-20T06:43:05.580Z,87.78
2022-09-20T06:45:33.676Z,87.90
2022-09-20T06:48:02.259Z,87.88
2022-09-20T06:50:30.959Z,87.86
2022-09-20T06:52:59.000Z,88.08
2022-09-20T06:55:37.273Z,87.86
2022-09-20T06:58:05.368Z,88.26
2022-09-20T07:00:33.456Z,87.84
2022-09-20T07:03:01.616Z,87.96
2022-09-20T07:05:29.633Z,87.84
2022-09-20T07:07:58.950Z,87.97
2022-09-20T07:10:30.535Z,87.22
2022-09-20T07:13:00.349Z,87.45
2022-09-20T07:15:29.272Z,86.76
2022-09-20T07:17:57.457Z,86.64
2022-09-20T07:20:25.696Z,86.49
2022-09-20T07:22:53.783Z,86.21
2022-09-20T07:25:23.053Z,86.18
2022-09-20T07:27:52.918Z,86.34
2022-09-20T07:30:22.066Z,86.79
2022-09-20T07:32:50.294Z,86.91
2022-09-20T07:35:18.777Z,86.47
2022-09-20T07:37:47.846Z,86.45
2022-09-20T07:40:16.428Z,86.40
2022-09-20T07:42:46.027Z,86.49
2022-09-20T07:45:15.635Z,86.56
2022-09-20T07:47:46.411Z,86.27
2022-09-20T07:50:14.764Z,86.30
2022-09-20T07:52:42.927Z,86.51
2022-09-20T07:55:11.091Z,86.69
2022-09-20T07:57:39.822Z,86.08
2022-09-20T08:00:11.580Z,86.35
2022-09-20T08:02:41.113Z,86.77
2022-09-20T08:05:09.967Z,86.73
2022-09-20T08:07:38.544Z,87.13
2022-09-20T08:10:08.055Z,86.71
2022-09-20T08:15:25.978Z,86.85
2022-09-20T08:17:55.502Z,87.24
2022-09-20T08:20:23.554Z,87.31
2022-09-20T08:23:12.460Z,87.39
2022-09-20T08:25:41.728Z,87.04
2022-09-20T08:28:09.873Z,86.81
2022-09-20T08:30:38.082Z,87.22
2022-09-20T08:33:07.904Z,87.66
2022-09-20T08:35:38.500Z,87.92
2022-09-20T08:40:59.800Z,87.55
2022-09-20T08:43:34.933Z,87.48
2022-09-20T08:46:06.016Z,87.40
2022-09-20T08:48:35.721Z,87.27
2022-09-20T08:51:06.175Z,87.09
2022-09-20T08:53:35.246Z,86.97
2022-09-20T08:56:04.672Z,86.18
2022-09-20T08:58:32.805Z,86.20
2022-09-20T09:01:01.444Z,85.79
2022-09-20T09:03:29.532Z,85.43
2022-09-20T09:05:59.310Z,84.50
2022-09-20T09:08:37.685Z,84.76
2022-09-20T09:11:09.939Z,83.54
2022-09-20T09:13:55.528Z,83.83
2022-09-20T09:16:33.721Z,83.27
2022-09-20T09:19:33.152Z,82.73
2022-09-20T09:22:05.712Z,81.46
2022-09-20T09:24:34.479Z,81.41
2022-09-20T09:27:16.353Z,80.51
2022-09-20T09:29:52.141Z,80.09
2022-09-20T09:32:28.524Z,79.77
2022-09-20T09:34:57.271Z,79.03
2022-09-20T09:37:32.566Z,78.26
2022-09-20T09:40:17.329Z,77.51
2022-09-20T09:42:57.594Z,76.44
2022-09-20T09:45:31.638Z,75.77
2022-09-20T09:48:02.252Z,75.36
2022-09-20T09:50:33.550Z,74.91
2022-09-20T09:53:13.663Z,74.26
2022-09-20T09:55:59.605Z,73.42
2022-09-20T09:58:44.808Z,72.49
2022-09-20T10:01:29.946Z,71.63
2022-09-20T10:04:07.449Z,71.04
2022-09-20T10:06:45.928Z,69.91
2022-09-20T10:09:50.005Z,69.15
2022-09-20T10:12:33.701Z,67.54
2022-09-20T10:15:21.214Z,67.00
2022-09-20T10:18:03.072Z,65.73
2022-09-20T10:21:06.611Z,65.36
2022-09-20T10:24:03.102Z,64.58
2022-09-20T10:26:59.547Z,63.92
2022-09-20T10:29:45.577Z,62.87
2022-09-20T10:32:28.212Z,61.57
2022-09-20T10:35:21.552Z,60.00
2022-09-20T10:38:07.353Z,59.83
2022-09-20T10:41:07.931Z,58.03
2022-09-20T10:43:59.278Z,58.55
2022-09-20T10:46:44.021Z,56.94
2022-09-20T10:49:28.990Z,56.18
2022-09-20T10:52:23.876Z,54.89
2022-09-20T10:55:12.333Z,53.67
2022-09-20T10:58:26.641Z,52.90
2022-09-20T11:01:04.552Z,52.19
2022-09-20T11:03:55.485Z,51.59
2022-09-20T11:06:29.519Z,50.80
2022-09-20T11:09:01.352Z,50.51
2022-09-20T11:11:35.982Z,50.42
2022-09-20T11:14:10.139Z,49.90
2022-09-20T11:16:44.354Z,49.36
2022-09-20T11:19:26.615Z,49.89
2022-09-20T11:22:01.755Z,49.02
2022-09-20T11:24:36.669Z,49.33
2022-09-20T11:27:14.123Z,48.81
2022-09-20T11:29:50.040Z,48.36
2022-09-20T11:32:28.820Z,47.94
2022-09-20T11:35:03.064Z,47.37
2022-09-20T11:37:39.009Z,47.06
2022-09-20T11:40:18.558Z,46.87
2022-09-20T11:42:48.119Z,46.31
2022-09-20T11:45:16.404Z,46.81
2022-09-20T11:47:54.816Z,46.50
2022-09-20T11:50:57.104Z,46.72
2022-09-20T11:53:50.504Z,46.55
2022-09-20T11:56:21.696Z,46.85
2022-09-20T11:58:52.552Z,46.75
2022-09-20T12:01:29.758Z,46.54
2022-09-20T12:04:31.064Z,46.63
2022-09-20T12:07:06.049Z,46.63
2022-09-20T12:09:41.175Z,45.51
2022-09-20T12:12:20.120Z,44.95
2022-09-20T12:14:56.152Z,43.88
2022-09-20T12:18:32.956Z,42.41
2022-09-20T12:21:15.252Z,41.87
2022-09-20T12:24:23.663Z,42.43
2022-09-20T12:26:56.888Z,43.06
2022-09-20T12:30:07.996Z,44.60
2022-09-20T12:32:58.771Z,45.92
2022-09-20T12:35:59.174Z,46.50
2022-09-20T12:38:33.364Z,46.55
2022-09-20T12:41:12.744Z,46.39
2022-09-20T12:43:55.656Z,46.35
2022-09-20T12:46:38.279Z,45.73
2022-09-20T12:50:02.139Z,44.32
2022-09-20T12:52:54.168Z,42.44
2022-09-20T12:55:42.436Z,40.76
2022-09-20T12:58:32.318Z,39.73
2022-09-20T13:01:32.029Z,38.00
2022-09-20T13:04:55.734Z,36.39
2022-09-20T13:07:53.935Z,36.81
2022-09-20T13:10:40.752Z,35.82
2022-09-20T13:13:32.731Z,35.22
2022-09-20T13:16:05.651Z,35.36
2022-09-20T13:18:35.948Z,34.74
2022-09-20T13:21:07.649Z,34.70
2022-09-20T13:23:49.302Z,34.29
2022-09-20T13:26:28.071Z,34.15
2022-09-20T13:28:59.102Z,34.18
2022-09-20T13:31:34.596Z,33.26
2022-09-20T13:34:20.752Z,32.50
2022-09-20T13:36:55.349Z,32.21
2022-09-20T13:39:32.800Z,32.38
2022-09-20T13:42:06.938Z,31.47
2022-09-20T13:44:37.361Z,31.86
2022-09-20T13:47:27.537Z,33.44
2022-09-20T13:50:02.931Z,35.77
2022-09-20T13:52:32.918Z,36.89
2022-09-20T13:55:01.095Z,37.84
2022-09-20T13:57:31.679Z,37.32
2022-09-20T14:00:01.624Z,35.67
2022-09-20T14:02:33.120Z,34.97
2022-09-20T14:05:04.511Z,34.20
2022-09-20T14:07:33.647Z,36.11
2022-09-20T14:10:01.721Z,36.04
2022-09-20T14:12:34.785Z,34.92
2022-09-20T14:15:11.294Z,34.11
2022-09-20T14:17:39.855Z,33.98
2022-09-20T14:20:15.339Z,32.74
2022-09-20T14:22:45.317Z,32.19
2022-09-20T14:25:25.487Z,31.68
2022-09-20T14:28:18.115Z,30.97
2022-09-20T14:30:47.950Z,30.67
2022-09-20T14:33:20.958Z,30.57
2022-09-20T14:35:51.275Z,30.19
2022-09-20T14:38:24.303Z,29.41
2022-09-20T14:40:52.938Z,29.84
2022-09-20T14:43:31.327Z,29.55
2022-09-20T14:46:03.348Z,30.17
2022-09-20T14:48:36.646Z,28.93
2022-09-20T14:51:25.417Z,29.26
2022-09-20T14:53:57.658Z,28.86
2022-09-20T14:56:35.707Z,28.31
2022-09-20T14:59:30.310Z,28.53
2022-09-20T15:02:10.133Z,28.18
2022-09-20T15:04:38.786Z,28.70
2022-09-20T15:07:10.378Z,27.90
2022-09-20T15:09:39.054Z,27.96
2022-09-20T15:12:13.669Z,27.06
2022-09-20T15:14:43.146Z,27.68
2022-09-20T15:17:17.321Z,28.22
2022-09-20T15:19:45.530Z,27.58
2022-09-20T15:22:15.185Z,27.67
2022-09-20T15:24:46.420Z,27.45
2022-09-20T15:27:14.817Z,27.73
2022-09-20T15:29:44.217Z,27.33
2022-09-20T15:32:12.690Z,26.65
2022-09-20T15:34:40.769Z,26.57
2022-09-20T15:37:09.953Z,26.46
2022-09-20T15:39:38.170Z,26.73
2022-09-20T15:42:06.923Z,27.04
2022-09-20T15:44:35.026Z,26.95
2022-09-20T15:47:04.623Z,27.64
2022-09-20T15:49:33.242Z,27.52
2022-09-20T15:52:02.374Z,27.57
2022-09-20T15:54:30.545Z,27.44
2022-09-20T15:56:58.616Z,26.98
2022-09-20T15:59:29.419Z,26.74
2022-09-20T16:01:57.502Z,26.26
2022-09-20T16:04:27.758Z,26.26
2022-09-20T16:06:55.839Z,26.32
2022-09-20T16:09:23.955Z,26.39
2022-09-20T16:11:58.703Z,27.62
2022-09-20T16:14:26.810Z,28.14
2022-09-20T16:17:02.029Z,28.03
2022-09-20T16:19:30.555Z,27.65
2022-09-20T16:21:59.521Z,28.56
2022-09-20T16:24:30.218Z,27.70
2022-09-20T16:27:00.696Z,28.00
2022-09-20T16:29:30.036Z,28.02
2022-09-20T16:31:59.597Z,29.91
2022-09-20T16:34:31.272Z,32.20
2022-09-20T16:37:02.941Z,35.03
2022-09-20T16:39:32.166Z,36.18
2022-09-20T16:42:03.631Z,37.41
2022-09-20T16:44:32.392Z,38.57
2022-09-20T16:47:01.052Z,39.53
2022-09-20T16:49:29.996Z,40.11
2022-09-20T16:51:58.687Z,41.33
2022-09-20T16:54:31.783Z,42.29
2022-09-20T16:57:01.876Z,43.03
2022-09-20T16:59:30.427Z,44.20
2022-09-20T17:01:58.866Z,44.78
2022-09-20T17:04:27.300Z,45.42
2022-09-20T17:06:55.820Z,45.97
2022-09-20T17:09:24.365Z,46.92
2022-09-20T17:11:54.494Z,47.90
2022-09-20T17:14:23.871Z,48.12
2022-09-20T17:16:53.302Z,48.82
2022-09-20T17:19:22.402Z,49.80
2022-09-20T17:21:51.647Z,50.67
2022-09-20T17:24:21.545Z,51.33
2022-09-20T17:26:51.110Z,51.71
2022-09-20T17:29:21.542Z,52.60
2022-09-20T17:31:55.701Z,53.22
2022-09-20T17:34:26.321Z,53.63
2022-09-20T17:36:55.338Z,54.32
2022-09-20T17:39:23.978Z,54.39
2022-09-20T17:41:52.119Z,54.54
2022-09-20T17:44:21.762Z,55.24
2022-09-20T17:46:53.787Z,55.53
2022-09-20T17:49:24.423Z,56.10
2022-09-20T17:51:54.964Z,56.64
2022-09-20T17:54:24.811Z,57.38
2022-09-20T17:56:55.978Z,57.90
2022-09-20T17:59:25.853Z,58.53
2022-09-20T18:01:57.040Z,58.69
2022-09-20T18:04:25.330Z,58.89
2022-09-20T18:06:55.429Z,59.42
2022-09-20T18:09:27.104Z,59.58
2022-09-20T18:11:56.942Z,60.42
2022-09-20T18:14:28.678Z,60.61
2022-09-20T18:17:01.045Z,60.86
2022-09-20T18:19:32.999Z,61.20
2022-09-20T18:22:02.244Z,61.56
2022-09-20T18:24:31.394Z,61.71
2022-09-20T18:27:00.512Z,62.03
2022-09-20T18:29:36.565Z,62.40
2022-09-20T18:32:06.428Z,62.69
2022-09-20T18:34:34.516Z,62.79
2022-09-20T18:37:03.753Z,63.14
2022-09-20T18:39:35.102Z,63.44
2022-09-20T18:42:04.157Z,63.32
2022-09-20T18:44:33.926Z,64.01
2022-09-20T18:47:03.755Z,64.07
2022-09-20T18:49:32.596Z,64.33
2022-09-20T18:52:00.779Z,65.02
2022-09-20T18:54:30.608Z,64.84
2022-09-20T18:57:00.065Z,65.33
2022-09-20T18:59:29.281Z,65.57
2022-09-20T19:02:18.202Z,65.82
2022-09-20T19:05:17.563Z,66.35
2022-09-20T19:08:00.932Z,66.47
2022-09-20T19:10:41.994Z,67.10
2022-09-20T19:13:29.518Z,67.83
2022-09-20T19:16:25.407Z,67.92
2022-09-20T19:19:35.829Z,67.82
2022-09-20T19:22:17.242Z,68.80
2022-09-20T19:25:04.593Z,68.78
2022-09-20T19:27:35.527Z,69.53
2022-09-20T19:30:06.247Z,69.81
2022-09-20T19:32:36.409Z,70.05
2022-09-20T19:35:11.117Z,70.00
2022-09-20T19:38:01.208Z,70.27
2022-09-20T19:40:39.992Z,71.04
2022-09-20T19:43:46.355Z,70.86
2022-09-20T19:46:34.354Z,71.04
2022-09-20T19:49:15.975Z,71.84
2022-09-20T19:51:47.893Z,71.83
2022-09-20T19:54:19.090Z,72.46
2022-09-20T19:56:55.176Z,72.44
2022-09-20T19:59:27.126Z,72.84
2022-09-20T20:01:58.744Z,73.23
2022-09-20T20:04:28.669Z,73.40
2022-09-20T20:07:09.935Z,73.72
2022-09-20T20:09:47.422Z,73.80
2022-09-20T20:12:25.959Z,73.81
2022-09-20T20:15:07.367Z,74.06
2022-09-20T20:17:50.075Z,74.08
2022-09-20T20:20:30.487Z,74.43
2022-09-20T20:23:50.246Z,74.46
2022-09-20T20:26:25.869Z,74.75
2022-09-20T20:28:55.883Z,75.69
2022-09-20T20:31:25.353Z,75.52
2022-09-20T20:33:55.801Z,75.72
2022-09-20T20:36:25.009Z,75.87
2022-09-20T20:38:58.963Z,75.74
2022-09-20T20:41:27.955Z,76.62
2022-09-20T20:43:57.371Z,76.41
2022-09-20T20:46:27.599Z,76.54
2022-09-20T20:48:56.911Z,76.83
2022-09-20T20:51:27.618Z,76.86
2022-09-20T20:53:58.919Z,76.83
2022-09-20T20:56:30.273Z,76.59
2022-09-20T20:59:00.706Z,77.12
2022-09-20T21:01:32.715Z,77.12
2022-09-20T21:04:04.518Z,77.47
2022-09-20T21:06:36.319Z,77.84
2022-09-20T21:09:07.031Z,78.00
2022-09-20T21:11:37.468Z,77.76
2022-09-20T21:14:08.019Z,77.76
2022-09-20T21:16:38.889Z,78.02
2022-09-20T21:19:09.486Z,78.20
2022-09-20T21:21:44.146Z,78.16
2022-09-20T21:24:23.851Z,78.72
2022-09-20T21:26:53.492Z,78.54
2022-09-20T21:29:21.854Z,79.14
2022-09-20T21:31:53.847Z,79.07
2022-09-20T21:34:21.916Z,79.53
2022-09-20T21:36:51.824Z,79.70
2022-09-20T21:39:31.824Z,79.40
2022-09-20T21:42:09.908Z,80.08
2022-09-20T21:44:48.129Z,80.47
2022-09-20T21:47:36.379Z,80.64
2022-09-20T21:50:07.085Z,80.33
2022-09-20T21:52:36.003Z,81.11
2022-09-20T21:55:06.919Z,80.82
2022-09-20T21:57:34.977Z,80.85
2022-09-20T22:00:03.391Z,81.25
2022-09-20T22:02:31.878Z,81.10
2022-09-20T22:04:59.993Z,81.85
2022-09-20T22:07:28.123Z,81.41
2022-09-20T22:09:56.203Z,81.34
2022-09-20T22:12:25.626Z,82.53
2022-09-20T22:14:53.745Z,81.62
2022-09-20T22:17:21.914Z,82.23
2022-09-20T22:19:50.235Z,82.23
2022-09-20T22:22:18.711Z,82.34
2022-09-20T22:24:47.212Z,82.01
2022-09-20T22:27:15.535Z,81.98
2022-09-20T22:29:45.732Z,81.79
2022-09-20T22:32:14.058Z,82.61
2022-09-20T22:34:42.413Z,82.90
2022-09-20T22:37:10.824Z,82.65
2022-09-20T22:39:39.228Z,82.49
2022-09-20T22:42:07.780Z,82.98
2022-09-20T22:44:36.140Z,82.71
2022-09-20T22:47:06.271Z,82.87
2022-09-20T22:49:34.732Z,83.08
2022-09-20T22:52:04.058Z,82.23
2022-09-20T22:54:35.543Z,82.24
2022-09-20T22:57:03.894Z,82.96
2022-09-20T22:59:32.249Z,82.76
2022-09-20T23:02:00.578Z,82.61
2022-09-20T23:04:30.311Z,83.08
2022-09-20T23:06:58.650Z,83.20
2022-09-20T23:09:28.543Z,82.84
2022-09-20T23:11:56.958Z,83.02
2022-09-20T23:14:25.888Z,83.88
2022-09-20T23:16:54.422Z,83.97
2022-09-20T23:19:23.890Z,83.62
2022-09-20T23:21:53.608Z,83.41
2022-09-20T23:24:21.981Z,84.38
2022-09-20T23:26:50.424Z,84.00
2022-09-20T23:29:18.937Z,83.49
2022-09-20T23:31:48.587Z,84.52
2022-09-20T23:34:18.408Z,83.98
2022-09-20T23:36:47.717Z,83.98
2022-09-20T23:39:17.526Z,84.68
2022-09-20T23:41:50.563Z,83.77
2022-09-20T23:44:19.376Z,84.90
2022-09-20T23:46:47.760Z,84.41
2022-09-20T23:49:16.192Z,84.51
2022-09-20T23:51:44.544Z,84.88
2022-09-20T23:54:12.882Z,85.28
2022-09-20T23:56:42.897Z,85.51
2022-09-20T23:59:11.253Z,84.53
